Time;durP1;ratioP1;P1;durP2;ratioP2;P2;SDS_P1;SDS_P2;PMS_P1;PMS_P2;Temp;Humidity;BMP_temperature;BMP_pressure;BME280_temperature;BME280_humidity;BME280_pressure;Samples;Min_cycle;Max_cycle;Signal;HPM_P1;HPM_P2
2023/01/12 00:00:00;;;;;;;26.90;6.67;;;;;;;-143.84;100.00;44500.72;5092349;28;20496;-77
2023/01/12 00:02:28;;;;;;;19.27;6.00;;;;;;;-143.84;100.00;44502.63;5092299;28;20435;-77
2023/01/12 00:04:56;;;;;;;18.07;6.97;;;;;;;-143.84;100.00;44498.81;5092308;28;20905;-77
2023/01/12 00:07:23;;;;;;;13.53;5.43;;;;;;;-143.84;100.00;44502.63;5092074;28;20474;-77
2023/01/12 00:09:51;;;;;;;13.20;5.13;;;;;;;-143.84;100.00;44498.81;5092138;28;20514;-77
2023/01/12 00:12:18;;;;;;;17.40;6.60;;;;;;;-143.84;100.00;44498.81;5092046;28;20551;-77
2023/01/12 00:14:45;;;;;;;20.93;5.50;;;;;;;-143.84;100.00;44500.72;5092137;28;20428;-77
2023/01/12 00:17:15;;;;;;;16.67;6.00;;;;;;;-143.84;100.00;44500.72;5092493;28;20929;-77
2023/01/12 00:19:42;;;;;;;20.70;5.80;;;;;;;-143.84;100.00;44500.72;5092136;28;20448;-77
2023/01/12 00:22:15;;;;;;;17.33;5.40;;;;;;;-143.84;100.00;44496.91;5092558;28;20432;-77
2023/01/12 00:24:44;;;;;;;11.27;4.10;;;;;;;-143.84;100.00;44498.81;5092351;28;20485;-77
2023/01/12 00:27:14;;;;;;;12.30;4.40;;;;;;;-143.84;100.00;44496.91;5092180;28;20554;-78
2023/01/12 00:29:42;;;;;;;10.63;4.70;;;;;;;-143.84;100.00;44498.81;5092359;28;20435;-78
2023/01/12 00:32:12;;;;;;;15.23;5.13;;;;;;;-143.84;100.00;44498.81;5092302;28;20444;-77
2023/01/12 00:34:39;;;;;;;10.27;4.30;;;;;;;-143.84;100.00;44498.81;5092192;28;20420;-77
2023/01/12 00:37:07;;;;;;;22.60;4.70;;;;;;;-143.84;100.00;44498.81;5092025;28;20435;-77
2023/01/12 00:39:36;;;;;;;12.80;4.90;;;;;;;-143.84;100.00;44504.53;5092296;28;20543;-77
2023/01/12 00:47:33;;;;;;;12.60;4.50;;;;;;;-143.84;100.00;44500.72;5092070;28;20474;-77
2023/01/12 00:50:00;;;;;;;8.03;4.70;;;;;;;-143.84;100.00;44502.63;5091914;28;20497;-77
2023/01/12 00:52:28;;;;;;;8.50;4.10;;;;;;;-143.84;100.00;44498.81;5092240;28;20442;-77
2023/01/12 00:54:55;;;;;;;10.40;5.00;;;;;;;-143.84;100.00;44498.81;5092038;28;20785;-77
2023/01/12 00:57:22;;;;;;;10.00;5.33;;;;;;;-143.84;100.00;44500.72;5091832;28;20442;-77
2023/01/12 00:59:53;;;;;;;13.03;4.57;;;;;;;-143.84;100.00;44496.91;5091716;28;20979;-77
2023/01/12 01:02:21;;;;;;;8.00;5.03;;;;;;;-143.84;100.00;44498.81;5091875;28;20443;-77
2023/01/12 01:04:48;;;;;;;9.43;4.93;;;;;;;-143.84;100.00;44504.53;5091757;28;20435;-77
2023/01/12 01:07:16;;;;;;;20.90;4.47;;;;;;;-143.84;100.00;44496.91;5091684;28;20532;-78
2023/01/12 01:09:44;;;;;;;14.03;5.80;;;;;;;-143.84;100.00;44500.72;5091883;28;20496;-77
2023/01/12 01:12:11;;;;;;;19.03;4.63;;;;;;;-143.84;100.00;44500.72;5091514;28;20574;-77
2023/01/12 01:14:38;;;;;;;8.30;5.23;;;;;;;-143.84;100.00;44500.72;5092003;28;20439;-77
2023/01/12 01:17:07;;;;;;;14.00;5.90;;;;;;;-143.84;100.00;44500.72;5091540;28;20447;-78
2023/01/12 01:19:34;;;;;;;21.77;5.97;;;;;;;-143.84;100.00;44504.53;5092161;28;20838;-78
2023/01/12 01:22:01;;;;;;;10.63;5.67;;;;;;;-143.84;100.00;44496.91;5093391;28;20434;-78
2023/01/12 01:24:28;;;;;;;30.93;6.67;;;;;;;-143.84;100.00;44498.81;5094829;28;20435;-78
2023/01/12 01:26:55;;;;;;;16.90;6.33;;;;;;;-143.84;100.00;44498.81;5090140;28;20497;-78
2023/01/12 01:29:22;;;;;;;12.17;5.87;;;;;;;-143.84;100.00;44498.81;5094182;28;20492;-78
2023/01/12 01:31:49;;;;;;;15.00;5.17;;;;;;;-143.84;100.00;44506.44;5095262;28;20908;-77
2023/01/12 01:34:18;;;;;;;14.63;5.30;;;;;;;-143.84;100.00;44498.81;5095272;28;20438;-78
2023/01/12 01:36:45;;;;;;;38.37;5.70;;;;;;;-143.84;100.00;44498.81;5094567;28;20894;-78
2023/01/12 01:39:12;;;;;;;14.17;5.50;;;;;;;-143.84;100.00;44498.81;5095276;28;20826;-78
2023/01/12 01:41:39;;;;;;;15.83;5.77;;;;;;;-143.84;100.00;44504.53;5094692;28;20500;-78
2023/01/12 01:44:45;;;;;;;12.87;4.80;;;;;;;-143.84;100.00;44502.63;5095267;28;20889;-78
2023/01/12 01:47:21;;;;;;;10.40;5.37;;;;;;;-143.84;100.00;44502.63;5094554;28;20546;-78
2023/01/12 01:49:53;;;;;;;9.70;5.10;;;;;;;-143.84;100.00;44500.72;5094370;28;20940;-78
2023/01/12 01:52:24;;;;;;;18.20;5.30;;;;;;;-143.84;100.00;44500.72;5094803;28;20822;-78
2023/01/12 01:54:55;;;;;;;9.77;4.40;;;;;;;-143.84;100.00;44498.81;5094570;28;20427;-77
2023/01/12 01:57:26;;;;;;;12.70;5.40;;;;;;;-143.84;100.00;44498.81;5094602;28;20427;-77
2023/01/12 01:59:56;;;;;;;14.43;5.00;;;;;;;-143.84;100.00;44498.81;5094577;28;21276;-77
2023/01/12 02:02:25;;;;;;;11.53;5.93;;;;;;;-143.84;100.00;44502.63;5094331;28;21003;-77
2023/01/12 02:04:57;;;;;;;15.00;5.50;;;;;;;-143.84;100.00;44502.63;5093489;28;20517;-77
2023/01/12 02:07:24;;;;;;;15.80;4.67;;;;;;;-143.84;100.00;44504.53;5094177;28;20465;-77
2023/01/12 02:09:51;;;;;;;13.97;5.60;;;;;;;-143.84;100.00;44495.00;5094646;28;20426;-77
2023/01/12 02:18:03;;;;;;;13.93;6.03;;;;;;;-143.84;100.00;44502.63;5094224;28;20422;-77
2023/01/12 02:20:47;;;;;;;19.80;6.37;;;;;;;-143.84;100.00;44502.63;5094600;28;20427;-77
2023/01/12 02:24:05;;;;;;;26.80;7.23;;;;;;;-143.84;100.00;44500.72;5094297;28;20431;-78
2023/01/12 02:27:12;;;;;;;24.50;6.50;;;;;;;-143.84;100.00;44496.91;5051753;28;21095;-78
2023/01/12 02:30:08;;;;;;;24.33;6.70;;;;;;;-143.84;100.00;44500.72;5094092;28;20442;-77
2023/01/12 02:32:45;;;;;;;18.03;5.90;;;;;;;-143.84;100.00;44498.81;5092396;28;20926;-78
2023/01/12 02:35:20;;;;;;;14.63;6.60;;;;;;;-143.84;100.00;44500.72;5094000;28;20439;-77
2023/01/12 02:37:54;;;;;;;15.37;5.87;;;;;;;-143.84;100.00;44496.91;5093894;28;20442;-77
2023/01/12 02:40:27;;;;;;;23.03;6.43;;;;;;;-143.84;100.00;44498.81;5093773;28;20917;-78
2023/01/12 02:43:04;;;;;;;12.13;5.53;;;;;;;-143.84;100.00;44502.63;5093929;28;20461;-78
2023/01/12 02:45:46;;;;;;;10.83;5.27;;;;;;;-143.84;100.00;44500.72;5093804;28;20488;-78
2023/01/12 02:48:22;;;;;;;20.83;5.30;;;;;;;-143.84;100.00;44498.81;5094035;28;20898;-77
2023/01/12 02:50:54;;;;;;;16.17;6.90;;;;;;;-143.84;100.00;44498.81;5093861;28;20505;-77
2023/01/12 02:53:28;;;;;;;12.20;5.60;;;;;;;-143.84;100.00;44502.63;5094035;28;20851;-77
2023/01/12 02:55:56;;;;;;;11.50;5.33;;;;;;;-143.84;100.00;44496.91;5093943;28;20428;-78
2023/01/12 02:58:27;;;;;;;8.20;4.80;;;;;;;-143.84;100.00;44502.63;5093709;28;20423;-77
2023/01/12 03:00:57;;;;;;;16.03;5.50;;;;;;;-143.84;100.00;44502.63;5093576;28;20503;-79
2023/01/12 03:03:27;;;;;;;17.20;5.47;;;;;;;-143.84;100.00;44500.72;5093291;28;20443;-79
2023/01/12 03:05:56;;;;;;;25.03;6.07;;;;;;;-143.84;100.00;44498.81;5093138;28;20438;-78
2023/01/12 03:08:27;;;;;;;15.23;5.33;;;;;;;-143.84;100.00;44504.53;5093252;28;20466;-78
2023/01/12 03:11:12;;;;;;;10.57;5.00;;;;;;;-143.84;100.00;44502.63;5093315;28;20485;-78
2023/01/12 03:13:44;;;;;;;13.67;5.10;;;;;;;-143.84;100.00;44502.63;5093179;28;20430;-78
2023/01/12 03:16:14;;;;;;;8.60;4.27;;;;;;;-143.84;100.00;44500.72;5093530;28;20510;-78
2023/01/12 03:18:48;;;;;;;19.23;4.80;;;;;;;-143.84;100.00;44498.81;5093448;28;20496;-78
2023/01/12 03:21:21;;;;;;;12.00;4.73;;;;;;;-143.84;100.00;44500.72;5093276;28;20435;-78
2023/01/12 03:23:54;;;;;;;13.23;4.80;;;;;;;-143.84;100.00;44498.81;5093131;28;20480;-78
2023/01/12 03:26:26;;;;;;;6.20;4.10;;;;;;;-143.84;100.00;44502.63;5092838;28;20432;-78
2023/01/12 03:28:58;;;;;;;7.90;4.23;;;;;;;-143.84;100.00;44500.72;5092948;28;20954;-78
2023/01/12 03:31:26;;;;;;;7.53;4.10;;;;;;;-143.84;100.00;44500.72;5093257;28;20492;-78
2023/01/12 03:33:55;;;;;;;20.73;5.37;;;;;;;-143.84;100.00;44498.81;5092896;28;20435;-78
2023/01/12 03:36:33;;;;;;;10.77;5.80;;;;;;;-143.84;100.00;44500.72;5092711;28;20998;-78
2023/01/12 03:39:08;;;;;;;15.60;5.47;;;;;;;-143.84;100.00;44502.63;5092785;28;20468;-78
2023/01/12 03:41:46;;;;;;;36.10;5.57;;;;;;;-143.84;100.00;44498.81;5092759;28;20514;-78
2023/01/12 03:44:20;;;;;;;22.10;7.60;;;;;;;-143.84;100.00;44500.72;5092413;28;20443;-77
2023/01/12 03:46:55;;;;;;;14.47;7.13;;;;;;;-143.84;100.00;44500.72;5092887;28;20531;-78
2023/01/12 03:49:30;;;;;;;15.20;6.93;;;;;;;-143.84;100.00;44496.91;5092868;28;20504;-77
2023/01/12 03:51:59;;;;;;;14.03;6.53;;;;;;;-143.84;100.00;44496.91;5091747;28;20460;-77
2023/01/12 03:54:28;;;;;;;23.33;7.73;;;;;;;-143.84;100.00;44502.63;5092468;28;20427;-77
2023/01/12 03:56:56;;;;;;;16.60;7.50;;;;;;;-143.84;100.00;44496.91;5092741;28;20434;-77
2023/01/12 03:59:23;;;;;;;26.13;7.80;;;;;;;-143.84;100.00;44498.81;5092621;28;20434;-77
2023/01/12 04:01:51;;;;;;;21.63;8.43;;;;;;;-143.84;100.00;44496.91;5092559;28;20430;-77
2023/01/12 04:04:19;;;;;;;21.33;8.80;;;;;;;-143.84;100.00;44498.81;5092654;28;20455;-77
2023/01/12 04:06:47;;;;;;;28.80;9.93;;;;;;;-143.84;100.00;44500.72;5091344;28;20473;-77
2023/01/12 04:09:14;;;;;;;30.00;9.10;;;;;;;-143.84;100.00;44496.91;5091819;28;20431;-77
2023/01/12 04:14:26;;;;;;;20.03;8.23;;;;;;;-143.84;100.00;44500.72;5091979;28;20421;-77
2023/01/12 04:16:54;;;;;;;23.80;8.67;;;;;;;-143.84;100.00;44500.72;5092034;28;20483;-77
2023/01/12 04:19:21;;;;;;;14.80;7.60;;;;;;;-143.84;100.00;44496.91;5092323;28;21144;-77
2023/01/12 04:24:34;;;;;;;17.33;6.93;;;;;;;-143.84;100.00;44495.00;5091722;28;20485;-77
2023/01/12 04:27:01;;;;;;;22.97;6.40;;;;;;;-143.84;100.00;44500.72;5091605;28;20555;-77
2023/01/12 04:29:28;;;;;;;14.40;6.30;;;;;;;-143.84;100.00;44495.00;5091157;28;20448;-76
2023/01/12 04:31:55;;;;;;;17.97;6.70;;;;;;;-143.84;100.00;44496.91;5090516;28;20801;-79
2023/01/12 04:34:23;;;;;;;14.47;6.70;;;;;;;-143.84;100.00;44498.81;5089960;28;20474;-76
2023/01/12 04:36:52;;;;;;;19.67;6.60;;;;;;;-143.84;100.00;44495.00;5091320;28;20445;-75
2023/01/12 04:39:19;;;;;;;12.87;6.07;;;;;;;-143.84;100.00;44502.63;5091146;28;20836;-77
2023/01/12 04:41:46;;;;;;;18.77;7.37;;;;;;;-143.84;100.00;44500.72;5092017;28;20435;-77
2023/01/12 04:44:13;;;;;;;23.20;7.60;;;;;;;-143.84;100.00;44500.72;5092021;28;20435;-77
2023/01/12 04:46:40;;;;;;;19.67;6.00;;;;;;;-143.84;100.00;44498.81;5092140;28;20441;-77
2023/01/12 04:49:08;;;;;;;21.33;6.27;;;;;;;-143.84;100.00;44496.91;5091811;28;20492;-78
2023/01/12 04:51:35;;;;;;;18.13;7.00;;;;;;;-143.84;100.00;44498.81;5091825;28;20456;-77
2023/01/12 04:54:04;;;;;;;13.17;6.50;;;;;;;-143.84;100.00;44496.91;5091487;28;20491;-78
2023/01/12 04:56:32;;;;;;;14.43;6.77;;;;;;;-143.84;100.00;44500.72;5093611;28;20455;-77
2023/01/12 04:59:00;;;;;;;14.23;6.03;;;;;;;-143.84;100.00;44495.00;5096014;28;20430;-77
2023/01/12 05:01:28;;;;;;;9.83;6.10;;;;;;;-143.84;100.00;44500.72;5095650;28;20939;-79
2023/01/12 05:03:56;;;;;;;18.70;7.47;;;;;;;-143.84;100.00;44495.00;5096510;28;20467;-77
2023/01/12 05:06:24;;;;;;;18.63;7.57;;;;;;;-143.84;100.00;44498.81;5095662;28;20442;-76
2023/01/12 05:11:37;;;;;;;15.47;6.83;;;;;;;-143.84;100.00;44496.91;5095668;28;20488;-79
2023/01/12 05:14:04;;;;;;;22.20;6.50;;;;;;;-143.84;100.00;44500.72;5095194;28;20444;-77
2023/01/12 05:16:31;;;;;;;22.20;7.73;;;;;;;-143.84;100.00;44493.09;5095156;28;20438;-77
2023/01/12 05:18:58;;;;;;;10.70;6.20;;;;;;;-143.84;100.00;44495.00;5095684;28;20667;-76
2023/01/12 05:21:25;;;;;;;8.07;6.50;;;;;;;-143.84;100.00;44498.81;5095532;28;20440;-75
2023/01/12 05:23:53;;;;;;;17.60;6.83;;;;;;;-143.84;100.00;44496.91;5094794;28;20481;-77
2023/01/12 05:26:21;;;;;;;13.00;5.90;;;;;;;-143.84;100.00;44500.72;5095447;28;20434;-78
2023/01/12 05:28:51;;;;;;;13.37;8.40;;;;;;;-143.84;100.00;44500.72;5095527;28;20470;-78
2023/01/12 05:31:19;;;;;;;14.27;6.40;;;;;;;-143.84;100.00;44498.81;5095370;28;20495;-76
2023/01/12 05:33:46;;;;;;;12.50;6.47;;;;;;;-143.84;100.00;44496.91;5095043;28;20441;-77
2023/01/12 05:36:15;;;;;;;11.03;5.30;;;;;;;-143.84;100.00;44496.91;5095346;28;20482;-80
2023/01/12 05:38:43;;;;;;;14.47;6.63;;;;;;;-143.84;100.00;44496.91;5094713;28;20424;-77
2023/01/12 05:41:13;;;;;;;9.30;6.00;;;;;;;-143.84;100.00;44502.63;5094980;28;20472;-77
2023/01/12 05:43:49;;;;;;;10.80;5.00;;;;;;;-143.84;100.00;44495.00;5094890;28;20489;-78
2023/01/12 05:46:19;;;;;;;11.23;5.57;;;;;;;-143.84;100.00;44496.91;5094713;28;20431;-78
2023/01/12 05:48:46;;;;;;;7.07;4.53;;;;;;;-143.84;100.00;44495.00;5094795;28;20469;-78
2023/01/12 05:51:13;;;;;;;5.97;4.77;;;;;;;-143.84;100.00;44495.00;5095148;28;20494;-79
2023/01/12 05:53:41;;;;;;;11.43;5.57;;;;;;;-143.84;100.00;44495.00;5094679;28;20790;-79
2023/01/12 05:56:11;;;;;;;6.30;4.57;;;;;;;-143.84;100.00;44495.00;5094882;28;20491;-79
2023/01/12 05:58:38;;;;;;;8.20;4.93;;;;;;;-143.84;100.00;44496.91;5094603;28;20443;-79
2023/01/12 06:01:09;;;;;;;8.53;4.30;;;;;;;-143.84;100.00;44495.00;5094782;28;20980;-78
2023/01/12 06:03:38;;;;;;;5.80;5.13;;;;;;;-143.84;100.00;44498.81;5095083;28;20938;-79
2023/01/12 06:06:05;;;;;;;11.80;3.90;;;;;;;-143.84;100.00;44496.91;5094701;28;20501;-77
2023/01/12 06:08:33;;;;;;;7.30;4.30;;;;;;;-143.84;100.00;44504.53;5093575;28;20482;-78
2023/01/12 06:11:03;;;;;;;4.87;4.33;;;;;;;-143.84;100.00;44496.91;5094253;28;20507;-78
2023/01/12 06:16:14;;;;;;;6.50;3.33;;;;;;;-143.84;100.00;44500.72;5094669;28;20408;-77
2023/01/12 06:18:43;;;;;;;3.30;3.03;;;;;;;-143.84;100.00;44496.91;5094715;28;20437;-78
2023/01/12 06:21:10;;;;;;;3.43;3.13;;;;;;;-143.84;100.00;44496.91;5094608;28;20430;-77
2023/01/12 06:23:37;;;;;;;7.73;2.80;;;;;;;-143.84;100.00;44496.91;5093711;28;20442;-78
2023/01/12 06:26:07;;;;;;;3.37;3.07;;;;;;;-143.84;100.00;44491.19;5094575;28;20989;-76
2023/01/12 06:28:35;;;;;;;3.20;3.00;;;;;;;-143.84;100.00;44495.00;5094069;28;20463;-78
2023/01/12 06:31:05;;;;;;;11.33;3.80;;;;;;;-143.84;100.00;44498.81;5094562;28;20878;-77
2023/01/12 06:33:32;;;;;;;3.97;3.20;;;;;;;-143.84;100.00;44498.81;5099662;28;20425;-77
2023/01/12 06:36:01;;;;;;;4.23;3.93;;;;;;;-143.84;100.00;44495.00;5099175;28;20810;-77
2023/01/12 06:38:31;;;;;;;5.97;2.80;;;;;;;-143.84;100.00;44491.19;5096833;28;20493;-77
2023/01/12 06:41:02;;;;;;;7.63;3.30;;;;;;;-143.84;100.00;44496.91;5095374;28;20481;-77
2023/01/12 06:43:29;;;;;;;2.27;2.17;;;;;;;-143.84;100.00;44491.19;5094343;28;20452;-77
2023/01/12 06:45:57;;;;;;;3.63;2.53;;;;;;;-143.84;100.00;44495.00;5093876;28;20439;-76
2023/01/12 06:48:25;;;;;;;2.30;2.20;;;;;;;-143.84;100.00;44496.91;5094116;28;20479;-77
2023/01/12 06:50:54;;;;;;;7.47;1.70;;;;;;;-143.84;100.00;44496.91;5093745;28;20521;-76
2023/01/12 06:53:23;;;;;;;1.80;1.70;;;;;;;-143.84;100.00;44495.00;5093807;28;20428;-76
2023/01/12 06:55:50;;;;;;;1.80;1.70;;;;;;;-143.84;100.00;44487.38;5093595;28;20461;-76
2023/01/12 06:58:18;;;;;;;2.17;1.97;;;;;;;-143.84;100.00;44493.09;5094067;28;20428;-76
2023/01/12 07:00:45;;;;;;;2.23;2.03;;;;;;;-143.84;100.00;44493.09;5094091;28;20432;-76
2023/01/12 07:03:17;;;;;;;3.67;2.03;;;;;;;-143.84;100.00;44491.19;5094823;28;20425;-76
2023/01/12 07:05:44;;;;;;;1.93;1.83;;;;;;;-143.84;100.00;44493.09;5095134;28;20962;-76
2023/01/12 07:08:14;;;;;;;3.40;2.50;;;;;;;-143.84;100.00;44493.09;5094585;28;20509;-77
2023/01/12 07:10:43;;;;;;;4.57;2.30;;;;;;;-143.84;100.00;44493.09;5094343;28;20483;-78
2023/01/12 07:13:11;;;;;;;8.27;1.90;;;;;;;-143.84;100.00;44495.00;5093577;28;20432;-77
2023/01/12 07:15:38;;;;;;;3.70;2.23;;;;;;;-143.84;100.00;44495.00;5093581;28;20456;-78
2023/01/12 07:18:05;;;;;;;2.53;2.00;;;;;;;-143.84;100.00;44493.09;5092895;28;20867;-77
2023/01/12 07:20:32;;;;;;;2.27;2.00;;;;;;;-143.84;100.00;44491.19;5092808;28;20459;-77
2023/01/12 07:22:59;;;;;;;2.07;1.97;;;;;;;-143.84;100.00;44493.09;5092818;28;20428;-79
2023/01/12 07:25:27;;;;;;;3.00;2.30;;;;;;;-143.84;100.00;44493.09;5093058;28;20429;-79
2023/01/12 07:27:58;;;;;;;1.90;1.80;;;;;;;-143.84;100.00;44493.09;5092764;28;20464;-77
2023/01/12 07:30:26;;;;;;;3.07;2.07;;;;;;;-143.84;100.00;44493.09;5092635;28;20444;-79
2023/01/12 07:32:53;;;;;;;2.57;2.37;;;;;;;-143.84;100.00;44498.81;5092494;28;20448;-80
2023/01/12 07:35:23;;;;;;;2.43;2.23;;;;;;;-143.84;100.00;44491.19;5092481;28;20436;-80
2023/01/12 07:37:52;;;;;;;2.27;2.07;;;;;;;-143.84;100.00;44491.19;5092381;28;20436;-81
2023/01/12 07:40:20;;;;;;;2.20;2.10;;;;;;;-143.84;100.00;44489.28;5091076;28;20859;-80
2023/01/12 07:42:48;;;;;;;3.73;1.80;;;;;;;-143.84;100.00;44493.09;5090367;28;20489;-79
2023/01/12 07:45:16;;;;;;;1.90;1.70;;;;;;;-143.84;100.00;44491.19;5092877;28;20440;-81
2023/01/12 07:47:43;;;;;;;2.53;1.90;;;;;;;-143.84;100.00;44493.09;5091869;28;20493;-76
2023/01/12 07:50:11;;;;;;;2.30;2.10;;;;;;;-143.84;100.00;44487.38;5092444;28;20779;-75
2023/01/12 07:52:40;;;;;;;2.10;2.00;;;;;;;-143.84;100.00;44493.09;5093830;28;20500;-76
2023/01/12 07:55:07;;;;;;;2.07;1.97;;;;;;;-143.84;100.00;44491.19;5092203;28;20424;-76
2023/01/12 07:57:36;;;;;;;3.40;2.30;;;;;;;-143.84;100.00;44489.28;5092040;28;20432;-76
2023/01/12 08:00:04;;;;;;;2.50;2.30;;;;;;;-143.84;100.00;44496.91;5092505;28;20435;-76
2023/01/12 08:02:33;;;;;;;2.23;2.00;;;;;;;-143.84;100.00;44489.28;5092307;28;20480;-76
2023/01/12 08:05:00;;;;;;;2.43;2.17;;;;;;;-143.84;100.00;44491.19;5092235;28;20522;-76
2023/01/12 08:07:27;;;;;;;7.37;2.30;;;;;;;-143.84;100.00;44487.38;5091857;28;20437;-76
2023/01/12 08:09:54;;;;;;;1.87;1.60;;;;;;;-143.84;100.00;44483.56;5092056;28;20479;-77
2023/01/12 08:12:22;;;;;;;2.17;2.07;;;;;;;-143.84;100.00;44479.78;5092229;28;20480;-76
2023/01/12 08:14:49;;;;;;;2.00;1.90;;;;;;;-143.84;100.00;44474.06;5092346;28;20429;-75
2023/01/12 08:17:18;;;;;;;2.03;1.73;;;;;;;-143.84;100.00;44470.25;5092260;28;20497;-78
2023/01/12 08:19:49;;;;;;;2.07;1.80;;;;;;;-143.84;100.00;44470.25;5091826;28;20424;-78
2023/01/12 08:22:23;;;;;;;2.47;2.20;;;;;;;-143.84;100.00;44472.16;5091764;28;20434;-77
2023/01/12 08:24:55;;;;;;;2.30;2.10;;;;;;;-143.84;100.00;44470.25;5091883;28;20926;-76
2023/01/12 08:27:26;;;;;;;2.60;2.40;;;;;;;-143.84;99.69;44470.25;5091725;28;20466;-73
2023/01/12 08:29:57;;;;;;;2.53;2.33;;;;;;;-143.84;100.00;44468.34;5091642;28;20465;-76
2023/01/12 08:32:27;;;;;;;3.23;2.00;;;;;;;-143.84;99.98;44470.25;5095818;28;20432;-78
2023/01/12 08:34:59;;;;;;;2.40;2.20;;;;;;;-143.84;99.63;44464.53;5094681;28;20474;-75
2023/01/12 08:37:27;;;;;;;2.20;2.00;;;;;;;-143.84;100.00;44464.53;5095826;28;20946;-74
2023/01/12 08:39:55;;;;;;;2.90;2.70;;;;;;;-143.84;99.76;44468.34;5095672;28;20446;-75
2023/01/12 08:42:24;;;;;;;2.80;2.60;;;;;;;-143.84;100.00;44470.25;5096045;28;20493;-76
2023/01/12 08:44:51;;;;;;;2.70;2.60;;;;;;;-143.84;100.00;44474.06;5095801;28;20441;-80
2023/01/12 08:47:20;;;;;;;3.67;2.47;;;;;;;-143.84;100.00;44470.25;5095570;28;20469;-76
2023/01/12 08:49:47;;;;;;;2.80;2.57;;;;;;;-143.84;99.96;44472.16;5095858;28;20508;-76
2023/01/12 08:52:16;;;;;;;3.80;3.20;;;;;;;-143.84;100.00;44468.34;5096013;28;20424;-78
2023/01/12 08:54:43;;;;;;;2.60;2.50;;;;;;;-143.84;100.00;44470.25;5096172;28;20537;-79
2023/01/12 08:57:10;;;;;;;3.53;3.23;;;;;;;-143.84;100.00;44470.25;5096505;28;20857;-80
2023/01/12 08:59:37;;;;;;;2.87;2.67;;;;;;;-143.84;100.00;44464.53;5095457;28;20503;-80
2023/01/12 09:02:05;;;;;;;2.67;2.47;;;;;;;-143.84;99.25;44456.94;5095500;28;20493;-79
2023/01/12 09:04:32;;;;;;;3.33;2.60;;;;;;;-143.84;99.33;44451.22;5096095;28;20424;-79
2023/01/12 09:07:00;;;;;;;3.27;3.07;;;;;;;-143.84;99.28;44437.88;5095350;28;20439;-79
2023/01/12 09:09:28;;;;;;;2.90;2.70;;;;;;;-143.84;98.69;44420.75;5095932;28;20992;-81
2023/01/12 09:11:56;;;;;;;2.80;2.60;;;;;;;-143.84;98.76;44416.94;5095411;28;20863;-79
2023/01/12 09:14:24;;;;;;;3.20;3.00;;;;;;;-143.84;99.03;44422.66;5095661;28;20428;-79
2023/01/12 09:16:51;;;;;;;3.20;2.90;;;;;;;-143.84;98.68;44401.72;5095237;28;20489;-79
2023/01/12 09:19:18;;;;;;;4.63;3.57;;;;;;;-143.84;98.77;44396.00;5095592;28;20493;-79
2023/01/12 09:21:45;;;;;;;3.33;3.13;;;;;;;-143.84;98.55;44405.53;5095068;28;20477;-79
2023/01/12 09:24:13;;;;;;;10.90;3.77;;;;;;;-143.84;99.15;44416.94;5095075;28;20444;-79
2023/01/12 09:26:43;;;;;;;11.50;4.23;;;;;;;-143.84;99.00;44422.66;5095042;28;20436;-79
2023/01/12 09:29:11;;;;;;;4.10;3.70;;;;;;;-143.84;99.25;44424.56;5095101;28;20463;-79
2023/01/12 09:31:41;;;;;;;5.20;4.70;;;;;;;-143.84;99.36;44430.28;5095043;28;20868;-78
2023/01/12 09:34:08;;;;;;;3.80;3.50;;;;;;;-143.84;99.42;44432.19;5095237;28;20945;-79
2023/01/12 09:36:37;;;;;;;4.17;3.73;;;;;;;-143.84;99.09;44426.47;5094715;28;20886;-79
2023/01/12 09:39:06;;;;;;;3.43;3.23;;;;;;;-143.84;99.39;44432.19;5095139;28;20435;-79
2023/01/12 09:47:17;;;;;;;7.23;4.67;;;;;;;-143.84;99.52;44434.09;5063606;28;20451;-79
2023/01/12 09:49:48;;;;;;;8.20;4.80;;;;;;;-143.84;99.49;44430.28;5095187;28;20490;-75
2023/01/12 09:52:20;;;;;;;4.23;3.87;;;;;;;-143.84;99.50;44435.97;5094843;28;20432;-78
2023/01/12 09:54:50;;;;;;;5.57;4.73;;;;;;;-143.84;99.54;44443.59;5094643;28;20448;-79
2023/01/12 09:57:51;;;;;;;4.97;4.57;;;;;;;-143.84;99.91;44443.59;5094685;28;20489;-78
2023/01/12 10:00:21;;;;;;;5.53;4.53;;;;;;;-143.84;99.86;44447.41;5092241;28;20475;-79
2023/01/12 10:02:52;;;;;;;4.90;4.40;;;;;;;-143.84;99.72;44451.22;5094917;28;20493;-78
2023/01/12 10:05:34;;;;;;;4.60;4.20;;;;;;;-143.84;100.00;44455.03;5094265;28;20455;-77
2023/01/12 10:08:03;;;;;;;7.23;4.60;;;;;;;-143.84;100.00;44456.94;5094519;28;20954;-78
2023/01/12 10:10:30;;;;;;;6.70;4.83;;;;;;;-143.84;100.00;44458.81;5094470;28;20938;-77
2023/01/12 10:13:02;;;;;;;7.73;5.13;;;;;;;-143.84;100.00;44458.81;5094180;28;20436;-78
2023/01/12 10:15:40;;;;;;;6.43;4.90;;;;;;;-143.84;100.00;44464.53;5094164;28;20803;-79
2023/01/12 10:18:14;;;;;;;5.00;4.70;;;;;;;-143.84;100.00;44472.16;5094875;28;20436;-80
2023/01/12 10:20:43;;;;;;;4.83;4.40;;;;;;;-143.84;100.00;44472.16;5093981;28;20443;-78
2023/01/12 10:23:15;;;;;;;6.63;5.40;;;;;;;-143.84;100.00;44460.72;5094296;28;20443;-80
2023/01/12 10:25:46;;;;;;;4.10;3.70;;;;;;;-143.84;99.99;44456.94;5094041;28;20509;-78
2023/01/12 10:28:18;;;;;;;4.70;4.23;;;;;;;-143.84;99.90;44456.94;5094639;28;20893;-79
2023/01/12 10:30:46;;;;;;;5.53;4.77;;;;;;;-143.84;100.00;44455.03;5093921;28;20459;-78
2023/01/12 10:33:16;;;;;;;4.27;3.97;;;;;;;-143.84;99.89;44449.31;5094210;28;21025;-77
2023/01/12 10:35:53;;;;;;;4.50;4.10;;;;;;;-143.84;99.92;44447.41;5093418;28;20435;-76
2023/01/12 10:38:24;;;;;;;5.17;3.80;;;;;;;-143.84;99.55;44435.97;5094166;28;20823;-77
2023/01/12 10:41:13;;;;;;;4.60;4.30;;;;;;;-143.84;99.74;44439.78;5094272;28;20611;-78
2023/01/12 10:43:41;;;;;;;4.80;4.40;;;;;;;-143.84;99.40;44432.19;5085931;28;20452;-77
2023/01/12 10:46:13;;;;;;;3.70;3.40;;;;;;;-143.84;99.52;44428.38;5093970;28;20421;-76
2023/01/12 10:48:42;;;;;;;3.80;3.50;;;;;;;-143.84;99.23;44424.56;5092594;28;20437;-75
2023/01/12 10:51:21;;;;;;;3.77;3.47;;;;;;;-143.84;99.24;44413.13;5092004;28;20440;-75
2023/01/12 10:53:52;;;;;;;4.37;4.07;;;;;;;-143.84;98.97;44409.34;5089431;28;20446;-74
2023/01/12 10:56:26;;;;;;;3.50;3.00;;;;;;;-143.84;99.03;44405.53;5071252;28;20460;-75
2023/01/12 10:58:56;;;;;;;5.03;3.73;;;;;;;-143.84;99.15;44401.72;5072898;28;20445;-74
2023/01/12 11:01:25;;;;;;;3.87;3.43;;;;;;;-143.84;98.75;44386.47;5073046;28;20433;-75
2023/01/12 11:04:05;;;;;;;3.10;2.90;;;;;;;-143.84;98.74;44375.06;5071964;28;20472;-75
2023/01/12 11:06:32;;;;;;;6.83;3.43;;;;;;;-143.84;99.01;44386.47;5072182;28;20428;-75
2023/01/12 11:09:18;;;;;;;4.20;3.80;;;;;;;-143.84;98.72;44384.59;5071969;28;20483;-75
2023/01/12 11:11:45;;;;;;;4.83;4.40;;;;;;;-143.84;98.62;44371.25;5071747;28;20495;-75
2023/01/12 11:14:25;;;;;;;3.67;3.37;;;;;;;-143.84;98.24;44329.38;5072030;28;20950;-75
2023/01/12 11:16:55;;;;;;;3.90;3.60;;;;;;;-143.84;98.28;44319.84;5072032;28;20432;-75
2023/01/12 11:19:27;;;;;;;2.93;2.73;;;;;;;-143.84;97.99;44300.81;5071596;28;20475;-74
2023/01/12 11:22:00;;;;;;;2.87;2.67;;;;;;;-143.84;97.66;44285.59;5072004;28;20432;-75
2023/01/12 11:24:36;;;;;;;3.77;3.47;;;;;;;-143.84;97.89;44287.50;5071848;28;20433;-75
2023/01/12 11:27:11;;;;;;;4.50;3.17;;;;;;;-143.84;97.92;44289.41;5071783;28;20498;-75
2023/01/12 11:29:45;;;;;;;3.23;2.93;;;;;;;-143.84;97.87;44289.41;5070491;28;20503;-75
2023/01/12 11:32:20;;;;;;;3.73;3.27;;;;;;;-143.84;97.90;44293.19;5071749;28;20474;-75
2023/01/12 11:34:59;;;;;;;3.97;3.37;;;;;;;-143.84;97.95;44285.59;5071536;28;20444;-75
2023/01/12 11:37:26;;;;;;;3.80;3.50;;;;;;;-143.84;98.14;44291.28;5071473;28;20440;-75
2023/01/12 11:40:02;;;;;;;3.50;3.20;;;;;;;-143.84;98.09;44297.00;5071607;28;21016;-75
2023/01/12 11:45:20;;;;;;;3.13;2.83;;;;;;;-143.84;98.54;44308.44;5071764;28;20474;-75
2023/01/12 11:47:53;;;;;;;12.83;3.27;;;;;;;-143.84;98.43;44312.25;5071977;28;20463;-74
2023/01/12 11:50:26;;;;;;;3.63;2.57;;;;;;;-143.84;98.40;44319.84;5072059;28;20575;-75